sensor_id;sensor_type;location;lat;lon;timestamp;temperature;humidity
52787;DHT22;38661;53.152;5.846;2022-12-16T00:01:47;1.40;96.50
52787;DHT22;38661;53.152;5.846;2022-12-16T00:04:12;1.30;96.50
52787;DHT22;38661;53.152;5.846;2022-12-16T00:06:38;1.30;96.50
52787;DHT22;38661;53.152;5.846;2022-12-16T00:09:03;1.20;96.50
52787;DHT22;38661;53.152;5.846;2022-12-16T00:11:29;1.20;96.50
52787;DHT22;38661;53.152;5.846;2022-12-16T00:13:56;1.10;96.50
52787;DHT22;38661;53.152;5.846;2022-12-16T00:16:22;1.10;96.50
52787;DHT22;38661;53.152;5.846;2022-12-16T00:18:48;1.10;96.50
52787;DHT22;38661;53.152;5.846;2022-12-16T00:21:14;1.10;96.50
52787;DHT22;38661;53.152;5.846;2022-12-16T00:23:43;1.10;96.50
52787;DHT22;38661;53.152;5.846;2022-12-16T00:26:10;1.00;96.50
52787;DHT22;38661;53.152;5.846;2022-12-16T00:28:36;1.00;96.50
52787;DHT22;38661;53.152;5.846;2022-12-16T00:31:03;0.90;96.50
52787;DHT22;38661;53.152;5.846;2022-12-16T00:33:28;0.90;96.50
52787;DHT22;38661;53.152;5.846;2022-12-16T00:35:55;0.90;96.50
52787;DHT22;38661;53.152;5.846;2022-12-16T00:38:22;0.80;96.50
52787;DHT22;38661;53.152;5.846;2022-12-16T00:40:48;0.80;96.50
52787;DHT22;38661;53.152;5.846;2022-12-16T00:43:14;0.80;96.50
52787;DHT22;38661;53.152;5.846;2022-12-16T00:45:40;0.80;96.50
52787;DHT22;38661;53.152;5.846;2022-12-16T00:48:06;0.80;96.50
52787;DHT22;38661;53.152;5.846;2022-12-16T00:50:32;0.70;96.50
52787;DHT22;38661;53.152;5.846;2022-12-16T00:52:58;0.70;96.50
52787;DHT22;38661;53.152;5.846;2022-12-16T00:55:23;0.70;96.40
52787;DHT22;38661;53.152;5.846;2022-12-16T00:57:49;0.60;96.40
52787;DHT22;38661;53.152;5.846;2022-12-16T01:00:16;0.60;96.40
52787;DHT22;38661;53.152;5.846;2022-12-16T01:02:44;0.60;96.30
52787;DHT22;38661;53.152;5.846;2022-12-16T01:05:11;0.60;96.30
52787;DHT22;38661;53.152;5.846;2022-12-16T01:07:37;0.60;96.20
52787;DHT22;38661;53.152;5.846;2022-12-16T01:10:04;0.60;96.20
52787;DHT22;38661;53.152;5.846;2022-12-16T01:12:31;0.60;96.20
52787;DHT22;38661;53.152;5.846;2022-12-16T01:14:56;0.60;96.20
52787;DHT22;38661;53.152;5.846;2022-12-16T01:17:22;0.60;96.20
52787;DHT22;38661;53.152;5.846;2022-12-16T01:19:51;0.60;96.30
52787;DHT22;38661;53.152;5.846;2022-12-16T01:22:17;0.60;96.20
52787;DHT22;38661;53.152;5.846;2022-12-16T01:24:43;0.60;96.30
52787;DHT22;38661;53.152;5.846;2022-12-16T01:27:09;0.50;96.00
52787;DHT22;38661;53.152;5.846;2022-12-16T01:29:35;0.50;95.80
52787;DHT22;38661;53.152;5.846;2022-12-16T01:32:00;0.40;95.80
52787;DHT22;38661;53.152;5.846;2022-12-16T01:34:26;0.40;95.80
52787;DHT22;38661;53.152;5.846;2022-12-16T01:36:52;0.40;95.70
52787;DHT22;38661;53.152;5.846;2022-12-16T01:39:17;0.40;95.70
52787;DHT22;38661;53.152;5.846;2022-12-16T01:41:43;0.30;95.60
52787;DHT22;38661;53.152;5.846;2022-12-16T01:44:17;0.30;95.50
52787;DHT22;38661;53.152;5.846;2022-12-16T01:46:59;0.30;95.50
52787;DHT22;38661;53.152;5.846;2022-12-16T01:49:41;0.30;95.60
52787;DHT22;38661;53.152;5.846;2022-12-16T01:52:11;0.30;95.70
52787;DHT22;38661;53.152;5.846;2022-12-16T01:54:53;0.30;95.70
52787;DHT22;38661;53.152;5.846;2022-12-16T01:57:25;0.20;95.60
52787;DHT22;38661;53.152;5.846;2022-12-16T01:59:53;0.20;95.70
52787;DHT22;38661;53.152;5.846;2022-12-16T02:02:19;0.20;95.70
52787;DHT22;38661;53.152;5.846;2022-12-16T02:04:46;0.20;95.60
52787;DHT22;38661;53.152;5.846;2022-12-16T02:07:30;0.20;95.60
52787;DHT22;38661;53.152;5.846;2022-12-16T02:09:56;0.20;95.60
52787;DHT22;38661;53.152;5.846;2022-12-16T02:13:15;0.20;95.50
52787;DHT22;38661;53.152;5.846;2022-12-16T02:18:42;0.20;95.30
52787;DHT22;38661;53.152;5.846;2022-12-16T02:35:38;0.20;94.80
52787;DHT22;38661;53.152;5.846;2022-12-16T02:41:04;0.20;95.00
52787;DHT22;38661;53.152;5.846;2022-12-16T02:43:49;0.20;95.00
52787;DHT22;38661;53.152;5.846;2022-12-16T02:46:17;0.30;95.00
52787;DHT22;38661;53.152;5.846;2022-12-16T02:48:43;0.30;95.20
52787;DHT22;38661;53.152;5.846;2022-12-16T02:51:09;0.40;95.20
52787;DHT22;38661;53.152;5.846;2022-12-16T02:53:37;0.40;95.00
52787;DHT22;38661;53.152;5.846;2022-12-16T03:01:38;0.40;94.80
52787;DHT22;38661;53.152;5.846;2022-12-16T03:04:10;0.40;94.40
52787;DHT22;38661;53.152;5.846;2022-12-16T03:06:38;0.40;94.50
52787;DHT22;38661;53.152;5.846;2022-12-16T03:09:08;0.40;94.50
52787;DHT22;38661;53.152;5.846;2022-12-16T03:11:37;0.40;94.30
52787;DHT22;38661;53.152;5.846;2022-12-16T03:14:06;0.40;94.10
52787;DHT22;38661;53.152;5.846;2022-12-16T03:16:33;0.30;94.00
52787;DHT22;38661;53.152;5.846;2022-12-16T03:19:02;0.30;93.80
52787;DHT22;38661;53.152;5.846;2022-12-16T03:21:33;0.20;93.80
52787;DHT22;38661;53.152;5.846;2022-12-16T03:24:04;0.20;93.70
52787;DHT22;38661;53.152;5.846;2022-12-16T03:26:38;0.20;93.80
52787;DHT22;38661;53.152;5.846;2022-12-16T03:29:10;0.20;93.80
52787;DHT22;38661;53.152;5.846;2022-12-16T03:31:48;0.20;93.90
52787;DHT22;38661;53.152;5.846;2022-12-16T03:34:30;0.10;93.90
52787;DHT22;38661;53.152;5.846;2022-12-16T03:37:01;0.10;94.00
52787;DHT22;38661;53.152;5.846;2022-12-16T03:39:31;0.10;93.70
52787;DHT22;38661;53.152;5.846;2022-12-16T03:41:58;0.10;93.80
52787;DHT22;38661;53.152;5.846;2022-12-16T03:44:24;0.10;93.60
52787;DHT22;38661;53.152;5.846;2022-12-16T03:46:51;0.00;93.40
52787;DHT22;38661;53.152;5.846;2022-12-16T03:49:16;0.00;93.30
52787;DHT22;38661;53.152;5.846;2022-12-16T03:51:42;0.00;93.30
52787;DHT22;38661;53.152;5.846;2022-12-16T03:54:08;0.00;93.50
52787;DHT22;38661;53.152;5.846;2022-12-16T03:56:33;0.00;93.60
52787;DHT22;38661;53.152;5.846;2022-12-16T03:58:59;0.00;93.70
52787;DHT22;38661;53.152;5.846;2022-12-16T04:01:25;0.00;93.70
52787;DHT22;38661;53.152;5.846;2022-12-16T04:03:50;0.00;93.80
52787;DHT22;38661;53.152;5.846;2022-12-16T04:06:16;0.10;93.80
52787;DHT22;38661;53.152;5.846;2022-12-16T04:08:44;0.10;93.80
52787;DHT22;38661;53.152;5.846;2022-12-16T04:11:11;0.10;93.90
52787;DHT22;38661;53.152;5.846;2022-12-16T04:13:56;0.10;93.90
52787;DHT22;38661;53.152;5.846;2022-12-16T04:16:40;0.10;93.70
52787;DHT22;38661;53.152;5.846;2022-12-16T04:19:28;0.20;93.60
52787;DHT22;38661;53.152;5.846;2022-12-16T04:22:17;0.20;93.60
52787;DHT22;38661;53.152;5.846;2022-12-16T04:25:07;0.20;93.50
52787;DHT22;38661;53.152;5.846;2022-12-16T04:27:34;0.20;93.70
52787;DHT22;38661;53.152;5.846;2022-12-16T04:29:59;0.20;93.60
52787;DHT22;38661;53.152;5.846;2022-12-16T04:32:44;0.30;93.50
52787;DHT22;38661;53.152;5.846;2022-12-16T04:35:28;0.30;93.50
52787;DHT22;38661;53.152;5.846;2022-12-16T04:38:13;0.30;93.50
52787;DHT22;38661;53.152;5.846;2022-12-16T04:40:57;0.30;93.60
52787;DHT22;38661;53.152;5.846;2022-12-16T04:43:41;0.30;93.50
52787;DHT22;38661;53.152;5.846;2022-12-16T04:46:33;0.40;93.50
52787;DHT22;38661;53.152;5.846;2022-12-16T04:49:17;0.40;93.50
52787;DHT22;38661;53.152;5.846;2022-12-16T04:52:01;0.50;93.40
52787;DHT22;38661;53.152;5.846;2022-12-16T04:54:46;0.50;93.40
52787;DHT22;38661;53.152;5.846;2022-12-16T04:57:30;0.50;93.20
52787;DHT22;38661;53.152;5.846;2022-12-16T05:00:14;0.50;93.10
52787;DHT22;38661;53.152;5.846;2022-12-16T05:02:58;0.60;93.10
52787;DHT22;38661;53.152;5.846;2022-12-16T05:05:42;0.60;93.10
52787;DHT22;38661;53.152;5.846;2022-12-16T05:08:27;0.60;93.00
52787;DHT22;38661;53.152;5.846;2022-12-16T05:11:11;0.60;92.90
52787;DHT22;38661;53.152;5.846;2022-12-16T05:13:55;0.60;92.90
52787;DHT22;38661;53.152;5.846;2022-12-16T05:16:39;0.60;92.90
52787;DHT22;38661;53.152;5.846;2022-12-16T05:19:23;0.60;92.90
52787;DHT22;38661;53.152;5.846;2022-12-16T05:22:07;0.70;93.00
52787;DHT22;38661;53.152;5.846;2022-12-16T05:24:51;0.70;93.00
52787;DHT22;38661;53.152;5.846;2022-12-16T05:27:35;0.70;93.00
52787;DHT22;38661;53.152;5.846;2022-12-16T05:30:19;0.80;93.00
52787;DHT22;38661;53.152;5.846;2022-12-16T05:33:03;0.70;93.00
52787;DHT22;38661;53.152;5.846;2022-12-16T05:35:47;0.80;93.00
52787;DHT22;38661;53.152;5.846;2022-12-16T05:38:32;0.80;93.00
52787;DHT22;38661;53.152;5.846;2022-12-16T05:41:16;0.90;93.00
52787;DHT22;38661;53.152;5.846;2022-12-16T05:44:00;0.90;93.00
52787;DHT22;38661;53.152;5.846;2022-12-16T05:46:44;0.80;93.00
52787;DHT22;38661;53.152;5.846;2022-12-16T05:49:28;0.80;92.90
52787;DHT22;38661;53.152;5.846;2022-12-16T05:52:12;0.90;92.90
52787;DHT22;38661;53.152;5.846;2022-12-16T05:54:56;1.00;92.50
52787;DHT22;38661;53.152;5.846;2022-12-16T05:57:40;0.90;92.50
52787;DHT22;38661;53.152;5.846;2022-12-16T06:00:24;1.00;92.40
52787;DHT22;38661;53.152;5.846;2022-12-16T06:03:08;1.00;92.30
52787;DHT22;38661;53.152;5.846;2022-12-16T06:05:53;1.00;92.30
52787;DHT22;38661;53.152;5.846;2022-12-16T06:08:37;1.00;92.30
52787;DHT22;38661;53.152;5.846;2022-12-16T06:11:21;0.90;92.30
52787;DHT22;38661;53.152;5.846;2022-12-16T06:14:05;1.00;92.30
52787;DHT22;38661;53.152;5.846;2022-12-16T06:16:49;0.90;92.40
52787;DHT22;38661;53.152;5.846;2022-12-16T06:19:33;0.90;92.50
52787;DHT22;38661;53.152;5.846;2022-12-16T06:22:17;0.80;92.50
52787;DHT22;38661;53.152;5.846;2022-12-16T06:25:01;0.80;92.60
52787;DHT22;38661;53.152;5.846;2022-12-16T06:27:52;0.90;92.70
52787;DHT22;38661;53.152;5.846;2022-12-16T06:30:36;0.90;92.80
52787;DHT22;38661;53.152;5.846;2022-12-16T06:33:21;0.90;92.80
52787;DHT22;38661;53.152;5.846;2022-12-16T06:36:05;0.90;92.90
52787;DHT22;38661;53.152;5.846;2022-12-16T06:38:49;0.80;92.90
52787;DHT22;38661;53.152;5.846;2022-12-16T06:41:34;0.80;93.00
52787;DHT22;38661;53.152;5.846;2022-12-16T06:44:18;0.80;93.10
52787;DHT22;38661;53.152;5.846;2022-12-16T06:47:02;0.80;93.10
52787;DHT22;38661;53.152;5.846;2022-12-16T06:49:46;0.80;93.10
52787;DHT22;38661;53.152;5.846;2022-12-16T06:52:30;0.80;93.10
52787;DHT22;38661;53.152;5.846;2022-12-16T06:55:14;0.70;93.20
52787;DHT22;38661;53.152;5.846;2022-12-16T06:57:59;0.70;93.30
52787;DHT22;38661;53.152;5.846;2022-12-16T07:00:44;0.80;93.30
52787;DHT22;38661;53.152;5.846;2022-12-16T07:03:28;0.70;93.40
52787;DHT22;38661;53.152;5.846;2022-12-16T07:06:13;0.70;93.50
52787;DHT22;38661;53.152;5.846;2022-12-16T07:08:57;0.70;93.60
52787;DHT22;38661;53.152;5.846;2022-12-16T07:11:41;0.80;93.60
52787;DHT22;38661;53.152;5.846;2022-12-16T07:14:25;0.70;93.70
52787;DHT22;38661;53.152;5.846;2022-12-16T07:17:09;0.80;93.80
52787;DHT22;38661;53.152;5.846;2022-12-16T07:19:53;0.80;93.90
52787;DHT22;38661;53.152;5.846;2022-12-16T07:22:41;0.90;93.90
52787;DHT22;38661;53.152;5.846;2022-12-16T07:25:26;0.90;93.90
52787;DHT22;38661;53.152;5.846;2022-12-16T07:28:10;0.90;94.00
52787;DHT22;38661;53.152;5.846;2022-12-16T07:30:54;0.90;94.00
52787;DHT22;38661;53.152;5.846;2022-12-16T07:33:38;1.00;93.90
52787;DHT22;38661;53.152;5.846;2022-12-16T07:36:22;0.90;94.00
52787;DHT22;38661;53.152;5.846;2022-12-16T07:39:06;0.90;94.10
52787;DHT22;38661;53.152;5.846;2022-12-16T07:41:50;0.90;94.20
52787;DHT22;38661;53.152;5.846;2022-12-16T07:44:34;0.90;94.20
52787;DHT22;38661;53.152;5.846;2022-12-16T07:47:19;0.90;94.30
52787;DHT22;38661;53.152;5.846;2022-12-16T07:50:03;0.90;94.30
52787;DHT22;38661;53.152;5.846;2022-12-16T07:52:54;0.80;94.30
52787;DHT22;38661;53.152;5.846;2022-12-16T07:55:38;0.80;94.30
52787;DHT22;38661;53.152;5.846;2022-12-16T07:58:22;0.80;94.30
52787;DHT22;38661;53.152;5.846;2022-12-16T08:01:06;0.80;94.30
52787;DHT22;38661;53.152;5.846;2022-12-16T08:03:51;0.70;94.40
52787;DHT22;38661;53.152;5.846;2022-12-16T08:06:35;0.80;94.60
52787;DHT22;38661;53.152;5.846;2022-12-16T08:09:19;0.80;94.60
52787;DHT22;38661;53.152;5.846;2022-12-16T08:12:03;0.80;94.60
52787;DHT22;38661;53.152;5.846;2022-12-16T08:14:47;0.80;94.70
52787;DHT22;38661;53.152;5.846;2022-12-16T08:17:31;0.90;94.80
52787;DHT22;38661;53.152;5.846;2022-12-16T08:20:15;0.80;94.70
52787;DHT22;38661;53.152;5.846;2022-12-16T08:22:59;0.80;94.60
52787;DHT22;38661;53.152;5.846;2022-12-16T08:25:43;0.90;94.70
52787;DHT22;38661;53.152;5.846;2022-12-16T08:28:27;0.90;94.90
52787;DHT22;38661;53.152;5.846;2022-12-16T08:31:12;0.90;95.00
52787;DHT22;38661;53.152;5.846;2022-12-16T08:33:56;0.90;95.10
52787;DHT22;38661;53.152;5.846;2022-12-16T08:36:40;0.90;95.10
52787;DHT22;38661;53.152;5.846;2022-12-16T08:39:24;0.90;95.10
52787;DHT22;38661;53.152;5.846;2022-12-16T08:42:08;0.90;95.20
52787;DHT22;38661;53.152;5.846;2022-12-16T08:44:52;1.00;95.20
52787;DHT22;38661;53.152;5.846;2022-12-16T08:47:36;1.00;95.30
52787;DHT22;38661;53.152;5.846;2022-12-16T08:50:20;0.90;95.30
52787;DHT22;38661;53.152;5.846;2022-12-16T08:53:05;0.90;95.30
52787;DHT22;38661;53.152;5.846;2022-12-16T08:55:49;1.00;95.30
52787;DHT22;38661;53.152;5.846;2022-12-16T08:58:33;1.00;95.40
52787;DHT22;38661;53.152;5.846;2022-12-16T09:01:17;1.00;95.30
52787;DHT22;38661;53.152;5.846;2022-12-16T09:04:01;1.00;95.40
52787;DHT22;38661;53.152;5.846;2022-12-16T09:06:45;1.00;95.40
52787;DHT22;38661;53.152;5.846;2022-12-16T09:09:29;1.00;95.50
52787;DHT22;38661;53.152;5.846;2022-12-16T09:12:13;1.10;95.50
52787;DHT22;38661;53.152;5.846;2022-12-16T09:14:57;1.10;95.60
52787;DHT22;38661;53.152;5.846;2022-12-16T09:17:41;1.10;95.60
52787;DHT22;38661;53.152;5.846;2022-12-16T09:20:26;1.10;95.60
52787;DHT22;38661;53.152;5.846;2022-12-16T09:23:10;1.10;95.60
52787;DHT22;38661;53.152;5.846;2022-12-16T09:25:54;1.10;95.60
52787;DHT22;38661;53.152;5.846;2022-12-16T09:28:38;1.10;95.70
52787;DHT22;38661;53.152;5.846;2022-12-16T09:31:22;1.20;95.70
52787;DHT22;38661;53.152;5.846;2022-12-16T09:34:06;1.10;95.70
52787;DHT22;38661;53.152;5.846;2022-12-16T09:36:50;1.20;95.70
52787;DHT22;38661;53.152;5.846;2022-12-16T09:39:34;1.20;95.70
52787;DHT22;38661;53.152;5.846;2022-12-16T09:51:57;1.30;95.70
52787;DHT22;38661;53.152;5.846;2022-12-16T09:54:44;1.30;95.70
52787;DHT22;38661;53.152;5.846;2022-12-16T09:57:30;1.40;95.70
52787;DHT22;38661;53.152;5.846;2022-12-16T10:00:26;1.40;95.80
52787;DHT22;38661;53.152;5.846;2022-12-16T10:03:28;1.40;95.70
52787;DHT22;38661;53.152;5.846;2022-12-16T10:09:56;1.40;95.80
52787;DHT22;38661;53.152;5.846;2022-12-16T10:13:01;1.50;95.80
52787;DHT22;38661;53.152;5.846;2022-12-16T10:22:12;1.40;95.70
52787;DHT22;38661;53.152;5.846;2022-12-16T10:28:53;1.50;95.80
52787;DHT22;38661;53.152;5.846;2022-12-16T10:31:39;1.50;95.90
52787;DHT22;38661;53.152;5.846;2022-12-16T10:34:28;1.60;95.90
52787;DHT22;38661;53.152;5.846;2022-12-16T10:37:17;1.50;95.90
52787;DHT22;38661;53.152;5.846;2022-12-16T10:40:05;1.60;95.90
52787;DHT22;38661;53.152;5.846;2022-12-16T10:42:59;1.60;95.90
52787;DHT22;38661;53.152;5.846;2022-12-16T10:45:49;1.60;95.90
52787;DHT22;38661;53.152;5.846;2022-12-16T10:48:34;1.60;96.00
52787;DHT22;38661;53.152;5.846;2022-12-16T10:51:20;1.60;96.00
52787;DHT22;38661;53.152;5.846;2022-12-16T11:00:42;1.60;95.90
52787;DHT22;38661;53.152;5.846;2022-12-16T11:03:32;1.60;96.00
52787;DHT22;38661;53.152;5.846;2022-12-16T11:06:24;1.70;96.00
52787;DHT22;38661;53.152;5.846;2022-12-16T11:09:28;1.70;96.00
52787;DHT22;38661;53.152;5.846;2022-12-16T11:12:26;1.70;96.00
52787;DHT22;38661;53.152;5.846;2022-12-16T11:15:30;1.80;96.00
52787;DHT22;38661;53.152;5.846;2022-12-16T11:18:20;1.80;96.00
52787;DHT22;38661;53.152;5.846;2022-12-16T11:21:16;1.80;96.00
52787;DHT22;38661;53.152;5.846;2022-12-16T11:24:05;1.90;95.90
52787;DHT22;38661;53.152;5.846;2022-12-16T11:26:54;1.90;96.00
52787;DHT22;38661;53.152;5.846;2022-12-16T11:29:53;1.90;96.00
52787;DHT22;38661;53.152;5.846;2022-12-16T11:32:39;1.90;95.90
52787;DHT22;38661;53.152;5.846;2022-12-16T11:35:27;1.90;95.90
52787;DHT22;38661;53.152;5.846;2022-12-16T11:38:42;2.00;95.90
52787;DHT22;38661;53.152;5.846;2022-12-16T11:41:35;1.90;95.80
52787;DHT22;38661;53.152;5.846;2022-12-16T11:44:37;2.00;95.90
52787;DHT22;38661;53.152;5.846;2022-12-16T11:47:55;1.90;95.80
52787;DHT22;38661;53.152;5.846;2022-12-16T11:50:46;2.00;95.80
52787;DHT22;38661;53.152;5.846;2022-12-16T11:56:38;2.10;95.80
52787;DHT22;38661;53.152;5.846;2022-12-16T12:02:19;2.20;95.60
52787;DHT22;38661;53.152;5.846;2022-12-16T12:05:05;2.10;95.50
52787;DHT22;38661;53.152;5.846;2022-12-16T12:11:35;2.20;95.40
52787;DHT22;38661;53.152;5.846;2022-12-16T12:17:37;2.30;95.40
52787;DHT22;38661;53.152;5.846;2022-12-16T12:26:36;2.20;95.10
52787;DHT22;38661;53.152;5.846;2022-12-16T12:29:37;2.20;95.00
52787;DHT22;38661;53.152;5.846;2022-12-16T12:32:39;2.30;95.00
52787;DHT22;38661;53.152;5.846;2022-12-16T12:38:34;2.60;95.10
52787;DHT22;38661;53.152;5.846;2022-12-16T12:47:56;3.00;94.90
52787;DHT22;38661;53.152;5.846;2022-12-16T12:50:55;3.20;94.40
52787;DHT22;38661;53.152;5.846;2022-12-16T12:53:56;3.40;93.90
52787;DHT22;38661;53.152;5.846;2022-12-16T12:56:46;3.40;93.80
52787;DHT22;38661;53.152;5.846;2022-12-16T13:02:45;3.60;93.50
52787;DHT22;38661;53.152;5.846;2022-12-16T13:05:33;4.00;92.70
52787;DHT22;38661;53.152;5.846;2022-12-16T13:08:42;4.30;92.10
52787;DHT22;38661;53.152;5.846;2022-12-16T13:11:27;4.60;91.10
52787;DHT22;38661;53.152;5.846;2022-12-16T13:17:14;5.20;88.90
52787;DHT22;38661;53.152;5.846;2022-12-16T13:19:59;5.30;87.60
52787;DHT22;38661;53.152;5.846;2022-12-16T13:22:44;5.50;86.80
52787;DHT22;38661;53.152;5.846;2022-12-16T13:25:46;5.70;86.40
52787;DHT22;38661;53.152;5.846;2022-12-16T13:28:38;5.80;84.90
52787;DHT22;38661;53.152;5.846;2022-12-16T13:31:24;5.90;84.60
52787;DHT22;38661;53.152;5.846;2022-12-16T13:37:00;5.90;84.70
52787;DHT22;38661;53.152;5.846;2022-12-16T13:40:05;6.00;84.30
52787;DHT22;38661;53.152;5.846;2022-12-16T13:42:57;5.90;84.10
52787;DHT22;38661;53.152;5.846;2022-12-16T13:45:43;6.00;83.80
52787;DHT22;38661;53.152;5.846;2022-12-16T13:48:46;6.00;83.70
52787;DHT22;38661;53.152;5.846;2022-12-16T13:54:28;6.00;84.50
52787;DHT22;38661;53.152;5.846;2022-12-16T13:57:17;5.70;84.00
52787;DHT22;38661;53.152;5.846;2022-12-16T14:00:06;5.40;84.00
52787;DHT22;38661;53.152;5.846;2022-12-16T14:02:59;5.20;85.60
52787;DHT22;38661;53.152;5.846;2022-12-16T14:05:45;5.00;85.10
52787;DHT22;38661;53.152;5.846;2022-12-16T14:08:32;5.00;85.60
52787;DHT22;38661;53.152;5.846;2022-12-16T14:11:43;4.90;85.80
52787;DHT22;38661;53.152;5.846;2022-12-16T14:14:35;4.80;86.00
52787;DHT22;38661;53.152;5.846;2022-12-16T14:18:00;4.60;86.20
52787;DHT22;38661;53.152;5.846;2022-12-16T14:20:44;4.40;86.40
52787;DHT22;38661;53.152;5.846;2022-12-16T14:23:48;4.10;86.90
52787;DHT22;38661;53.152;5.846;2022-12-16T14:26:34;4.00;87.20
52787;DHT22;38661;53.152;5.846;2022-12-16T14:32:33;3.70;87.80
52787;DHT22;38661;53.152;5.846;2022-12-16T14:35:23;3.60;88.20
52787;DHT22;38661;53.152;5.846;2022-12-16T14:38:29;3.40;88.40
52787;DHT22;38661;53.152;5.846;2022-12-16T14:41:23;3.30;88.70
52787;DHT22;38661;53.152;5.846;2022-12-16T14:44:23;3.10;89.00
52787;DHT22;38661;53.152;5.846;2022-12-16T14:47:19;3.00;89.30
52787;DHT22;38661;53.152;5.846;2022-12-16T14:50:20;3.10;90.10
52787;DHT22;38661;53.152;5.846;2022-12-16T14:56:15;2.90;89.90
52787;DHT22;38661;53.152;5.846;2022-12-16T14:59:20;2.80;90.10
52787;DHT22;38661;53.152;5.846;2022-12-16T15:02:20;2.70;90.20
52787;DHT22;38661;53.152;5.846;2022-12-16T15:05:08;2.60;90.30
52787;DHT22;38661;53.152;5.846;2022-12-16T15:07:52;2.50;90.50
52787;DHT22;38661;53.152;5.846;2022-12-16T15:10:37;2.50;90.70
52787;DHT22;38661;53.152;5.846;2022-12-16T15:13:21;2.40;90.80
52787;DHT22;38661;53.152;5.846;2022-12-16T15:16:10;2.30;90.90
52787;DHT22;38661;53.152;5.846;2022-12-16T15:18:59;2.20;91.00
52787;DHT22;38661;53.152;5.846;2022-12-16T15:21:46;2.10;91.10
52787;DHT22;38661;53.152;5.846;2022-12-16T15:24:34;2.10;91.30
52787;DHT22;38661;53.152;5.846;2022-12-16T15:30:45;1.90;91.40
52787;DHT22;38661;53.152;5.846;2022-12-16T15:33:35;1.90;91.50
52787;DHT22;38661;53.152;5.846;2022-12-16T15:36:30;1.80;91.50
52787;DHT22;38661;53.152;5.846;2022-12-16T15:39:37;1.70;91.60
52787;DHT22;38661;53.152;5.846;2022-12-16T15:42:29;1.70;91.70
52787;DHT22;38661;53.152;5.846;2022-12-16T15:45:31;1.60;91.80
52787;DHT22;38661;53.152;5.846;2022-12-16T15:48:30;1.50;91.80
52787;DHT22;38661;53.152;5.846;2022-12-16T15:51:45;1.40;91.80
52787;DHT22;38661;53.152;5.846;2022-12-16T15:54:30;1.30;92.00
52787;DHT22;38661;53.152;5.846;2022-12-16T16:00:21;1.10;92.00
52787;DHT22;38661;53.152;5.846;2022-12-16T16:06:22;1.10;92.20
52787;DHT22;38661;53.152;5.846;2022-12-16T16:09:34;1.00;92.20
52787;DHT22;38661;53.152;5.846;2022-12-16T16:12:20;1.00;92.30
52787;DHT22;38661;53.152;5.846;2022-12-16T16:15:07;0.90;92.30
52787;DHT22;38661;53.152;5.846;2022-12-16T16:17:57;0.80;92.30
52787;DHT22;38661;53.152;5.846;2022-12-16T16:20:42;0.80;92.30
52787;DHT22;38661;53.152;5.846;2022-12-16T16:23:26;0.70;92.20
52787;DHT22;38661;53.152;5.846;2022-12-16T16:26:12;0.60;92.20
52787;DHT22;38661;53.152;5.846;2022-12-16T16:28:57;0.60;92.30
52787;DHT22;38661;53.152;5.846;2022-12-16T16:31:41;0.60;92.30
52787;DHT22;38661;53.152;5.846;2022-12-16T16:34:25;0.50;92.30
52787;DHT22;38661;53.152;5.846;2022-12-16T16:37:14;0.40;92.30
52787;DHT22;38661;53.152;5.846;2022-12-16T16:39:59;0.40;92.40
52787;DHT22;38661;53.152;5.846;2022-12-16T16:42:43;0.30;92.40
52787;DHT22;38661;53.152;5.846;2022-12-16T16:45:28;0.20;92.40
52787;DHT22;38661;53.152;5.846;2022-12-16T16:48:16;0.20;92.50
52787;DHT22;38661;53.152;5.846;2022-12-16T16:51:02;0.20;92.50
52787;DHT22;38661;53.152;5.846;2022-12-16T16:53:47;0.10;92.60
52787;DHT22;38661;53.152;5.846;2022-12-16T16:56:33;0.10;92.60
52787;DHT22;38661;53.152;5.846;2022-12-16T16:59:21;0.10;92.60
52787;DHT22;38661;53.152;5.846;2022-12-16T17:02:24;0.10;92.60
52787;DHT22;38661;53.152;5.846;2022-12-16T17:05:09;0.00;92.50
52787;DHT22;38661;53.152;5.846;2022-12-16T17:07:55;0.00;92.50
52787;DHT22;38661;53.152;5.846;2022-12-16T17:10:40;0.00;92.60
52787;DHT22;38661;53.152;5.846;2022-12-16T17:13:23;-3276.70;92.70
52787;DHT22;38661;53.152;5.846;2022-12-16T17:16:10;-3276.70;92.80
52787;DHT22;38661;53.152;5.846;2022-12-16T17:18:54;-3276.70;92.80
52787;DHT22;38661;53.152;5.846;2022-12-16T17:21:38;-3276.60;92.80
52787;DHT22;38661;53.152;5.846;2022-12-16T17:24:22;-3276.60;92.80
52787;DHT22;38661;53.152;5.846;2022-12-16T17:27:18;-3276.50;92.80
52787;DHT22;38661;53.152;5.846;2022-12-16T17:30:03;-3276.50;92.80
52787;DHT22;38661;53.152;5.846;2022-12-16T17:32:50;-3276.50;92.90
52787;DHT22;38661;53.152;5.846;2022-12-16T17:35:34;-3276.50;92.90
52787;DHT22;38661;53.152;5.846;2022-12-16T17:38:18;-3276.40;92.90
52787;DHT22;38661;53.152;5.846;2022-12-16T17:41:02;-3276.30;92.70
52787;DHT22;38661;53.152;5.846;2022-12-16T17:43:46;-3276.30;92.90
52787;DHT22;38661;53.152;5.846;2022-12-16T17:46:30;-3276.30;92.90
52787;DHT22;38661;53.152;5.846;2022-12-16T17:49:14;-3276.30;93.00
52787;DHT22;38661;53.152;5.846;2022-12-16T17:51:58;-3276.20;93.00
52787;DHT22;38661;53.152;5.846;2022-12-16T17:54:42;-3276.10;92.90
52787;DHT22;38661;53.152;5.846;2022-12-16T17:57:26;-3276.00;92.70
52787;DHT22;38661;53.152;5.846;2022-12-16T18:00:10;-3275.90;92.80
52787;DHT22;38661;53.152;5.846;2022-12-16T18:02:55;-3275.80;93.00
52787;DHT22;38661;53.152;5.846;2022-12-16T18:05:39;-3275.80;93.10
52787;DHT22;38661;53.152;5.846;2022-12-16T18:08:23;-3275.70;93.20
52787;DHT22;38661;53.152;5.846;2022-12-16T18:11:07;-3275.60;93.10
52787;DHT22;38661;53.152;5.846;2022-12-16T18:13:51;-3275.50;93.30
52787;DHT22;38661;53.152;5.846;2022-12-16T18:16:35;-3275.50;93.30
52787;DHT22;38661;53.152;5.846;2022-12-16T18:19:19;-3275.40;93.40
52787;DHT22;38661;53.152;5.846;2022-12-16T18:22:03;-3275.40;93.50
52787;DHT22;38661;53.152;5.846;2022-12-16T18:24:47;-3275.30;93.50
52787;DHT22;38661;53.152;5.846;2022-12-16T18:27:34;-3275.20;93.60
52787;DHT22;38661;53.152;5.846;2022-12-16T18:30:18;-3275.20;93.80
52787;DHT22;38661;53.152;5.846;2022-12-16T18:33:02;-3275.20;93.90
52787;DHT22;38661;53.152;5.846;2022-12-16T18:35:46;-3275.20;93.90
52787;DHT22;38661;53.152;5.846;2022-12-16T18:38:31;-3275.10;94.00
52787;DHT22;38661;53.152;5.846;2022-12-16T18:41:17;-3275.10;94.20
52787;DHT22;38661;53.152;5.846;2022-12-16T18:44:02;-3275.10;94.30
52787;DHT22;38661;53.152;5.846;2022-12-16T18:46:47;-3275.10;94.40
52787;DHT22;38661;53.152;5.846;2022-12-16T18:49:31;-3275.20;94.70
52787;DHT22;38661;53.152;5.846;2022-12-16T18:52:17;-3275.20;94.80
52787;DHT22;38661;53.152;5.846;2022-12-16T18:55:01;-3275.20;94.90
52787;DHT22;38661;53.152;5.846;2022-12-16T18:57:46;-3275.20;95.10
52787;DHT22;38661;53.152;5.846;2022-12-16T19:00:31;-3275.30;95.20
52787;DHT22;38661;53.152;5.846;2022-12-16T19:03:15;-3275.30;95.40
52787;DHT22;38661;53.152;5.846;2022-12-16T19:05:59;-3275.40;95.50
52787;DHT22;38661;53.152;5.846;2022-12-16T19:08:43;-3275.40;95.50
52787;DHT22;38661;53.152;5.846;2022-12-16T19:11:27;-3275.40;95.60
52787;DHT22;38661;53.152;5.846;2022-12-16T19:14:12;-3275.40;95.70